Time;durP1;ratioP1;P1;durP2;ratioP2;P2;SDS_P1;SDS_P2;PMS_P1;PMS_P2;Temp;Humidity;BMP_temperature;BMP_pressure;BME280_temperature;BME280_humidity;BME280_pressure;Samples;Min_cycle;Max_cycle;Signal;HPM_P1;HPM_P2
2022/04/09 00:00:30;;;;;;;0.47;0.47;;;6.30;99.90;;;;;;5078773;28;20232;-89
2022/04/09 00:02:57;;;;;;;7.40;0.63;;;6.30;99.90;;;;;;5044353;28;20220;-89
2022/04/09 00:05:23;;;;;;;0.50;0.50;;;6.30;99.90;;;;;;5063530;28;20236;-89
2022/04/09 00:07:48;;;;;;;0.30;0.30;;;6.30;99.90;;;;;;5063799;28;20780;-88
2022/04/09 00:10:15;;;;;;;0.50;0.50;;;6.30;99.90;;;;;;5063378;28;20225;-87
2022/04/09 00:12:45;;;;;;;0.30;0.30;;;6.40;99.90;;;;;;5079608;28;20308;-89
2022/04/09 00:15:12;;;;;;;1.03;0.67;;;6.30;99.90;;;;;;5063272;28;20708;-89
2022/04/09 00:17:43;;;;;;;0.77;0.77;;;6.30;99.90;;;;;;5066190;28;20229;-89
2022/04/09 00:20:11;;;;;;;0.30;0.30;;;6.20;99.90;;;;;;5049633;28;20268;-88
2022/04/09 00:22:38;;;;;;;0.50;0.50;;;6.20;99.90;;;;;;5050390;28;20189;-89
2022/04/09 00:25:09;;;;;;;0.20;0.20;;;5.90;99.90;;;;;;5083427;28;20232;-90
2022/04/09 00:27:35;;;;;;;0.93;0.93;;;5.80;99.90;;;;;;5040975;28;20240;-89
2022/04/09 00:30:03;;;;;;;0.23;0.23;;;5.70;99.90;;;;;;5067536;28;20346;-87
2022/04/09 00:32:29;;;;;;;0.30;0.30;;;5.70;99.90;;;;;;5049231;28;20213;-89
2022/04/09 00:34:54;;;;;;;0.23;0.23;;;5.70;99.90;;;;;;5082719;28;20200;-89
2022/04/09 00:37:20;;;;;;;0.40;0.40;;;5.70;99.90;;;;;;5048941;28;20185;-87
2022/04/09 00:39:46;;;;;;;0.50;0.50;;;5.70;99.90;;;;;;5067262;28;20275;-89
2022/04/09 00:42:13;;;;;;;0.50;0.50;;;5.70;99.90;;;;;;5065204;28;20310;-89
2022/04/09 00:44:39;;;;;;;1.07;1.07;;;5.80;99.90;;;;;;5082682;28;20221;-89
2022/04/09 00:47:05;;;;;;;0.50;0.40;;;5.80;99.90;;;;;;5082133;28;21061;-90
2022/04/09 00:49:31;;;;;;;0.30;0.30;;;5.90;99.90;;;;;;5083011;28;20188;-88
2022/04/09 00:51:59;;;;;;;0.40;0.40;;;5.90;99.90;;;;;;5065673;28;20312;-89
2022/04/09 00:54:26;;;;;;;0.20;0.20;;;6.00;99.90;;;;;;5065339;28;20221;-89
2022/04/09 00:56:54;;;;;;;0.23;0.23;;;6.00;99.90;;;;;;5082346;28;20567;-89
2022/04/09 00:59:26;;;;;;;0.20;0.20;;;6.00;99.90;;;;;;5065499;28;20216;-89
2022/04/09 01:01:54;;;;;;;0.30;0.30;;;6.00;99.90;;;;;;5048731;28;20204;-89
2022/04/09 01:04:21;;;;;;;2.77;1.80;;;5.90;99.90;;;;;;5049104;28;21140;-88
2022/04/09 01:06:48;;;;;;;0.40;0.30;;;5.90;99.90;;;;;;5082174;28;20229;-88
2022/04/09 01:09:13;;;;;;;0.40;0.40;;;6.00;99.90;;;;;;5082944;28;20283;-89
2022/04/09 01:11:40;;;;;;;0.30;0.30;;;6.00;99.90;;;;;;5048752;28;20550;-89
2022/04/09 01:14:06;;;;;;;0.20;0.20;;;6.10;99.90;;;;;;5065425;28;20646;-88
2022/04/09 01:16:32;;;;;;;0.20;0.20;;;6.00;99.90;;;;;;5065289;28;20197;-89
2022/04/09 01:18:59;;;;;;;0.30;0.30;;;6.00;99.90;;;;;;5048371;28;20228;-89
2022/04/09 01:21:26;;;;;;;1.73;0.57;;;6.00;99.90;;;;;;5082029;28;20216;-89
2022/04/09 01:23:53;;;;;;;1.47;1.37;;;6.00;99.90;;;;;;5064781;28;20312;-89
2022/04/09 01:26:19;;;;;;;0.27;0.27;;;6.00;99.90;;;;;;5065189;28;20232;-90
2022/04/09 01:28:45;;;;;;;0.30;0.30;;;6.00;99.90;;;;;;5065810;28;20213;-88
2022/04/09 01:31:10;;;;;;;2.57;2.07;;;6.00;99.90;;;;;;5081853;28;20249;-89
2022/04/09 01:33:36;;;;;;;0.40;0.40;;;6.00;99.90;;;;;;5048203;28;20256;-87
2022/04/09 01:36:03;;;;;;;0.20;0.20;;;6.10;99.90;;;;;;5082308;28;20217;-89
2022/04/09 01:38:28;;;;;;;0.30;0.30;;;6.10;99.90;;;;;;5042099;28;20232;-88
2022/04/09 01:40:54;;;;;;;1.47;1.37;;;6.10;99.90;;;;;;5047563;28;20243;-89
2022/04/09 01:43:21;;;;;;;0.40;0.40;;;6.10;99.90;;;;;;5066081;28;20599;-87
2022/04/09 01:45:47;;;;;;;9.43;1.70;;;6.00;99.90;;;;;;5065187;28;20410;-89
2022/04/09 01:48:13;;;;;;;0.17;0.17;;;6.00;99.90;;;;;;5082139;28;20945;-89
2022/04/09 01:50:39;;;;;;;0.30;0.30;;;6.10;99.90;;;;;;5047567;28;20310;-88
2022/04/09 01:53:05;;;;;;;0.30;0.30;;;6.10;99.90;;;;;;5066082;28;20189;-88
2022/04/09 01:55:32;;;;;;;0.20;0.20;;;6.00;99.90;;;;;;5048557;28;20192;-89
2022/04/09 01:57:58;;;;;;;0.60;0.60;;;6.00;99.90;;;;;;5080163;28;20287;-88
2022/04/09 02:00:25;;;;;;;2.00;0.33;;;5.90;99.90;;;;;;5080456;28;20221;-89
2022/04/09 02:02:51;;;;;;;0.40;0.40;;;5.80;99.90;;;;;;5064856;28;20217;-90
2022/04/09 02:05:18;;;;;;;0.30;0.30;;;5.80;99.90;;;;;;5081054;28;20233;-88
2022/04/09 02:07:45;;;;;;;0.53;0.53;;;5.80;99.90;;;;;;5048687;28;20221;-88
2022/04/09 02:10:11;;;;;;;0.30;0.30;;;5.90;99.90;;;;;;5066284;28;20686;-89
2022/04/09 02:12:38;;;;;;;0.30;0.30;;;5.80;99.90;;;;;;5080795;28;20339;-88
2022/04/09 02:15:07;;;;;;;0.30;0.30;;;5.80;99.90;;;;;;5080983;28;20263;-88
2022/04/09 02:17:35;;;;;;;3.70;0.93;;;5.70;99.90;;;;;;5063905;28;20248;-88
2022/04/09 02:20:04;;;;;;;0.30;0.30;;;5.80;99.90;;;;;;5047165;28;20204;-89
2022/04/09 02:22:38;;;;;;;0.30;0.30;;;5.80;99.90;;;;;;5056620;28;20177;-89
2022/04/09 02:25:05;;;;;;;0.70;0.70;;;5.80;99.90;;;;;;5053726;28;20224;-89
2022/04/09 02:27:31;;;;;;;2.10;1.47;;;5.70;99.90;;;;;;5047591;28;20221;-87
2022/04/09 02:29:57;;;;;;;0.20;0.20;;;5.70;99.90;;;;;;5063592;28;20217;-89
2022/04/09 02:32:23;;;;;;;0.30;0.30;;;5.80;99.90;;;;;;5063752;28;20408;-88
2022/04/09 02:34:52;;;;;;;0.30;0.30;;;5.80;99.90;;;;;;5064550;28;20190;-89
2022/04/09 02:37:18;;;;;;;0.20;0.20;;;5.80;99.90;;;;;;5046873;28;20220;-89
2022/04/09 02:39:44;;;;;;;0.30;0.30;;;5.90;99.90;;;;;;5045668;28;21339;-88
2022/04/09 02:42:11;;;;;;;1.50;1.17;;;6.10;99.90;;;;;;5080980;28;20320;-89
2022/04/09 02:44:37;;;;;;;0.30;0.30;;;5.40;99.90;;;;;;5046702;28;20225;-87
2022/04/09 02:47:03;;;;;;;0.20;0.20;;;5.00;99.90;;;;;;5080532;28;20222;-90
2022/04/09 02:49:29;;;;;;;2.87;1.63;;;4.90;99.90;;;;;;5081301;28;21106;-87
2022/04/09 02:51:54;;;;;;;0.20;0.20;;;5.00;99.90;;;;;;5047306;28;20217;-90
2022/04/09 02:54:20;;;;;;;0.30;0.30;;;5.10;99.90;;;;;;5064350;28;20228;-87
2022/04/09 02:56:48;;;;;;;0.47;0.47;;;5.10;99.90;;;;;;5063905;28;20270;-91
2022/04/09 02:59:14;;;;;;;0.53;0.53;;;5.10;99.90;;;;;;5063569;28;20336;-90
2022/04/09 03:01:46;;;;;;;0.20;0.20;;;5.20;99.90;;;;;;5047551;28;20264;-87
2022/04/09 03:04:13;;;;;;;0.27;0.27;;;5.20;99.90;;;;;;5079591;28;20275;-90
2022/04/09 03:06:39;;;;;;;0.30;0.30;;;5.20;99.90;;;;;;5063865;28;20241;-87
2022/04/09 03:09:05;;;;;;;0.40;0.40;;;5.30;99.90;;;;;;5063309;28;20233;-91
2022/04/09 03:11:31;;;;;;;0.30;0.30;;;5.30;99.90;;;;;;5055295;28;20676;-90
2022/04/09 03:13:57;;;;;;;0.30;0.30;;;5.40;99.90;;;;;;5079702;28;20205;-87
2022/04/09 03:16:23;;;;;;;0.63;0.57;;;5.50;99.90;;;;;;5064637;28;20272;-88
2022/04/09 03:18:49;;;;;;;8.27;0.97;;;5.50;99.90;;;;;;5045673;28;21038;-90
2022/04/09 03:21:15;;;;;;;0.20;0.20;;;5.50;99.90;;;;;;5046138;28;20243;-90
2022/04/09 03:23:41;;;;;;;1.07;1.07;;;5.60;99.90;;;;;;5045333;28;20213;-89
2022/04/09 03:26:07;;;;;;;0.30;0.30;;;5.60;99.90;;;;;;5047067;28;20193;-89
2022/04/09 03:28:33;;;;;;;0.10;0.10;;;5.50;99.90;;;;;;5047398;28;20209;-90
2022/04/09 03:30:59;;;;;;;0.10;0.10;;;5.40;99.90;;;;;;5062696;28;20332;-90
2022/04/09 03:33:26;;;;;;;0.20;0.20;;;5.20;99.90;;;;;;5062737;28;20308;-92
2022/04/09 03:35:52;;;;;;;0.30;0.30;;;5.20;99.90;;;;;;5044748;28;20314;-90
2022/04/09 03:38:18;;;;;;;0.20;0.20;;;5.20;99.90;;;;;;5062727;28;21057;-91
2022/04/09 03:40:44;;;;;;;0.30;0.30;;;5.30;99.90;;;;;;5045214;28;20252;-91
2022/04/09 03:43:10;;;;;;;0.30;0.30;;;5.40;99.90;;;;;;5061829;28;20228;-90
2022/04/09 03:45:36;;;;;;;0.23;0.23;;;5.60;99.90;;;;;;5062945;28;20987;-87
2022/04/09 03:48:02;;;;;;;0.70;0.70;;;5.80;99.90;;;;;;5048368;28;20236;-90
2022/04/09 03:50:28;;;;;;;1.57;0.80;;;5.90;99.90;;;;;;5083237;28;20217;-91
2022/04/09 03:52:54;;;;;;;0.40;0.40;;;5.80;99.90;;;;;;5084934;28;20227;-86
2022/04/09 03:55:19;;;;;;;0.30;0.30;;;5.80;99.90;;;;;;5068548;28;20228;-91
2022/04/09 03:57:46;;;;;;;0.83;0.40;;;5.80;99.90;;;;;;5050384;28;20235;-88
2022/04/09 04:00:14;;;;;;;0.60;0.60;;;5.70;99.90;;;;;;5067421;28;20386;-89
2022/04/09 04:02:41;;;;;;;0.40;0.40;;;5.70;99.90;;;;;;5067201;28;20224;-91
2022/04/09 04:05:07;;;;;;;0.60;0.60;;;5.70;99.90;;;;;;5049879;28;20232;-91
2022/04/09 04:07:33;;;;;;;0.87;0.40;;;5.80;99.90;;;;;;5068273;28;20294;-91
2022/04/09 04:10:10;;;;;;;0.30;0.30;;;5.80;99.90;;;;;;5049793;28;20265;-90
2022/04/09 04:12:36;;;;;;;2.87;0.90;;;5.90;99.90;;;;;;5042831;28;20295;-89
2022/04/09 04:15:04;;;;;;;0.20;0.20;;;5.90;99.90;;;;;;5065958;28;20209;-89
2022/04/09 04:17:40;;;;;;;0.30;0.30;;;5.90;99.90;;;;;;5067935;28;20209;-90
2022/04/09 04:20:07;;;;;;;8.50;1.03;;;5.80;99.90;;;;;;5051321;28;20239;-90
2022/04/09 04:22:33;;;;;;;0.43;0.43;;;5.70;99.90;;;;;;5068600;28;20564;-90
2022/04/09 04:24:59;;;;;;;0.30;0.30;;;5.60;99.90;;;;;;5067338;28;20255;-89
2022/04/09 04:27:24;;;;;;;0.30;0.30;;;5.70;99.90;;;;;;5050361;28;20579;-91
2022/04/09 04:29:50;;;;;;;0.63;0.53;;;5.60;99.90;;;;;;5050560;28;20226;-89
2022/04/09 04:32:16;;;;;;;0.97;0.97;;;5.60;99.90;;;;;;5067050;28;20217;-89
2022/04/09 04:34:41;;;;;;;0.73;0.73;;;5.60;99.90;;;;;;5067933;28;20194;-87
2022/04/09 04:37:07;;;;;;;0.40;0.40;;;5.60;99.90;;;;;;5084734;28;20224;-91
2022/04/09 04:39:33;;;;;;;0.80;0.80;;;5.60;99.90;;;;;;5043091;28;20245;-90
2022/04/09 04:41:59;;;;;;;0.37;0.37;;;5.60;99.90;;;;;;5043206;28;20220;-88
2022/04/09 04:44:24;;;;;;;0.67;0.67;;;5.70;99.90;;;;;;5068406;28;20673;-89
2022/04/09 04:46:50;;;;;;;0.37;0.37;;;5.70;99.90;;;;;;5067886;28;20193;-87
2022/04/09 04:49:16;;;;;;;0.80;0.80;;;5.80;99.90;;;;;;5067359;28;20233;-90
2022/04/09 04:51:41;;;;;;;0.50;0.50;;;5.80;99.90;;;;;;5050257;28;20221;-89
2022/04/09 04:54:07;;;;;;;0.50;0.50;;;5.90;99.90;;;;;;5049561;28;20753;-88
2022/04/09 04:56:33;;;;;;;0.90;0.57;;;5.90;99.90;;;;;;5082631;28;20223;-90
2022/04/09 04:58:59;;;;;;;0.63;0.63;;;5.90;99.90;;;;;;5048764;28;20204;-87
2022/04/09 05:01:26;;;;;;;0.30;0.30;;;5.80;99.90;;;;;;5066323;28;20221;-89
2022/04/09 05:03:53;;;;;;;4.13;0.60;;;5.60;99.90;;;;;;5048753;28;20252;-91
2022/04/09 05:06:19;;;;;;;0.30;0.30;;;5.60;99.90;;;;;;5065583;28;20241;-89
2022/04/09 05:08:45;;;;;;;0.50;0.50;;;5.70;99.90;;;;;;5066389;28;20233;-91
2022/04/09 05:11:10;;;;;;;4.23;0.90;;;5.60;99.90;;;;;;5082357;28;20189;-89
2022/04/09 05:13:36;;;;;;;0.40;0.40;;;5.70;99.90;;;;;;5083739;28;20204;-91
2022/04/09 05:16:02;;;;;;;0.10;0.10;;;5.70;99.90;;;;;;5065642;28;20709;-90
2022/04/09 05:18:28;;;;;;;2.70;0.70;;;5.80;99.90;;;;;;5048582;28;20244;-88
2022/04/09 05:20:53;;;;;;;0.53;0.53;;;5.80;99.90;;;;;;5048755;28;20625;-91
2022/04/09 05:23:19;;;;;;;1.13;0.37;;;5.80;99.90;;;;;;5064910;28;20233;-88
2022/04/09 05:25:45;;;;;;;0.37;0.37;;;5.80;99.90;;;;;;5082933;28;20283;-90
2022/04/09 05:28:10;;;;;;;0.20;0.20;;;5.90;99.90;;;;;;5067507;28;20980;-88
2022/04/09 05:30:37;;;;;;;0.30;0.30;;;5.90;99.90;;;;;;5051191;28;20677;-90
2022/04/09 05:33:03;;;;;;;0.30;0.30;;;5.80;99.90;;;;;;5064989;28;20225;-90
2022/04/09 05:35:29;;;;;;;0.80;0.80;;;5.90;99.90;;;;;;5048794;28;20220;-90
2022/04/09 05:37:55;;;;;;;0.20;0.20;;;6.00;99.90;;;;;;5055411;28;20319;-88
2022/04/09 05:40:22;;;;;;;0.50;0.50;;;6.20;99.90;;;;;;5048728;28;20637;-88
2022/04/09 05:42:48;;;;;;;0.50;0.50;;;6.40;99.90;;;;;;5081051;28;20537;-87
2022/04/09 05:45:14;;;;;;;0.30;0.30;;;6.80;99.90;;;;;;5082105;28;20232;-90
2022/04/09 05:47:41;;;;;;;1.20;0.97;;;6.80;99.90;;;;;;5074640;28;20422;-90
2022/04/09 05:50:09;;;;;;;2.77;2.57;;;6.60;99.90;;;;;;5048149;28;20182;-87
2022/04/09 05:52:35;;;;;;;0.20;0.20;;;6.30;99.90;;;;;;5049592;28;20181;-89
2022/04/09 05:55:03;;;;;;;0.20;0.20;;;6.10;99.90;;;;;;5065582;28;20217;-90
2022/04/09 05:57:30;;;;;;;0.17;0.17;;;6.20;99.90;;;;;;5081908;28;20229;-88
2022/04/09 05:59:56;;;;;;;0.40;0.40;;;7.10;99.90;;;;;;5047739;28;20213;-89
2022/04/09 06:02:22;;;;;;;3.60;0.50;;;8.10;99.90;;;;;;5047783;28;20217;-89
2022/04/09 06:04:47;;;;;;;0.30;0.30;;;8.40;99.90;;;;;;5048030;28;20656;-90
2022/04/09 06:07:13;;;;;;;0.50;0.50;;;8.50;99.90;;;;;;5065049;28;20260;-91
2022/04/09 06:09:42;;;;;;;0.30;0.30;;;8.60;99.90;;;;;;5047645;28;20225;-89
2022/04/09 06:12:09;;;;;;;0.37;0.37;;;8.90;99.90;;;;;;5079744;28;20232;-91
2022/04/09 06:14:35;;;;;;;0.60;0.60;;;9.00;99.90;;;;;;5046318;28;20244;-87
2022/04/09 06:17:00;;;;;;;0.20;0.20;;;8.90;99.90;;;;;;5047284;28;20246;-91
2022/04/09 06:19:27;;;;;;;0.30;0.30;;;9.00;99.90;;;;;;5062212;28;20190;-86
2022/04/09 06:21:53;;;;;;;0.23;0.23;;;9.10;99.90;;;;;;5044237;28;20686;-83
2022/04/09 06:24:19;;;;;;;0.47;0.27;;;9.30;99.90;;;;;;5059892;28;20217;-85
2022/04/09 06:26:45;;;;;;;0.10;0.10;;;9.70;99.90;;;;;;5076604;28;20263;-83
2022/04/09 06:29:10;;;;;;;0.23;0.23;;;9.40;99.90;;;;;;5059331;28;20217;-85
2022/04/09 06:31:36;;;;;;;2.73;0.27;;;9.10;99.90;;;;;;5061225;28;21087;-84
2022/04/09 06:34:02;;;;;;;2.67;0.90;;;8.00;99.90;;;;;;5042953;28;20228;-84
2022/04/09 06:36:27;;;;;;;0.20;0.20;;;7.50;99.90;;;;;;5059601;28;20553;-84
2022/04/09 06:38:53;;;;;;;6.57;0.83;;;7.10;99.90;;;;;;5059902;28;20719;-84
2022/04/09 06:41:19;;;;;;;5.80;0.40;;;6.90;99.90;;;;;;5062404;28;20579;-85
2022/04/09 06:43:46;;;;;;;0.27;0.27;;;6.70;99.90;;;;;;5063168;28;20189;-90
2022/04/09 06:46:12;;;;;;;0.10;0.10;;;6.70;99.90;;;;;;5079057;28;20217;-90
2022/04/09 06:48:38;;;;;;;0.23;0.23;;;6.70;99.90;;;;;;5063502;28;20319;-89
2022/04/09 06:51:04;;;;;;;0.43;0.43;;;7.30;99.90;;;;;;5063289;28;20225;-92
2022/04/09 06:53:30;;;;;;;0.23;0.23;;;8.20;99.90;;;;;;5063387;28;20289;-90
2022/04/09 06:55:55;;;;;;;13.87;0.40;;;8.80;99.90;;;;;;5065032;28;20193;-88
2022/04/09 06:58:21;;;;;;;0.20;0.20;;;9.60;99.90;;;;;;5048355;28;20204;-89
2022/04/09 07:00:47;;;;;;;2.80;0.80;;;9.70;99.90;;;;;;5047050;28;20220;-89
2022/04/09 07:03:13;;;;;;;2.33;0.37;;;10.00;99.90;;;;;;5064552;28;20579;-88
2022/04/09 07:05:40;;;;;;;0.20;0.20;;;10.00;99.90;;;;;;5047275;28;20414;-91
2022/04/09 07:08:08;;;;;;;0.50;0.50;;;10.30;99.90;;;;;;5063723;28;20213;-88
2022/04/09 07:10:36;;;;;;;1.93;0.63;;;10.90;99.90;;;;;;5047915;28;20227;-89
2022/04/09 07:13:02;;;;;;;0.93;0.63;;;11.00;99.90;;;;;;5065227;28;20285;-90
2022/04/09 07:15:28;;;;;;;2.50;0.40;;;11.30;99.90;;;;;;5056173;28;20263;-89
2022/04/09 07:17:55;;;;;;;1.13;0.60;;;11.70;99.90;;;;;;5080907;28;20287;-88
2022/04/09 07:20:21;;;;;;;1.50;0.40;;;11.70;99.90;;;;;;5047255;28;20274;-87
2022/04/09 07:22:47;;;;;;;2.30;0.73;;;11.10;99.90;;;;;;5063168;28;20190;-89
2022/04/09 07:25:13;;;;;;;0.10;0.10;;;10.90;99.90;;;;;;5045120;28;20346;-89
2022/04/09 07:27:44;;;;;;;0.20;0.20;;;10.60;99.90;;;;;;5063241;28;20229;-86
2022/04/09 07:30:16;;;;;;;1.10;0.77;;;10.60;99.90;;;;;;5061947;28;20269;-90
2022/04/09 07:32:42;;;;;;;0.50;0.23;;;10.90;99.90;;;;;;5045209;28;20228;-89
2022/04/09 07:35:08;;;;;;;0.30;0.30;;;10.60;99.90;;;;;;5044868;28;20193;-88
2022/04/09 07:37:43;;;;;;;14.43;2.57;;;10.70;99.90;;;;;;5048020;28;20243;-89
2022/04/09 07:40:10;;;;;;;0.77;0.77;;;10.70;99.90;;;;;;5046256;28;20230;-89
2022/04/09 07:42:41;;;;;;;2.97;1.00;;;11.10;99.90;;;;;;5080666;28;20312;-89
2022/04/09 07:45:08;;;;;;;0.57;0.30;;;11.20;99.90;;;;;;5046743;28;20267;-87
2022/04/09 07:47:34;;;;;;;0.30;0.30;;;11.20;99.90;;;;;;5064887;28;20232;-88
2022/04/09 07:50:02;;;;;;;4.90;1.50;;;11.20;99.90;;;;;;5062577;28;20189;-88
2022/04/09 07:52:28;;;;;;;2.93;0.50;;;10.30;99.90;;;;;;5079573;28;20201;-89
2022/04/09 07:54:57;;;;;;;3.03;0.60;;;9.90;99.90;;;;;;5044254;28;20246;-86
2022/04/09 07:57:24;;;;;;;0.57;0.50;;;10.80;99.90;;;;;;5045884;28;20229;-90
2022/04/09 07:59:50;;;;;;;0.20;0.20;;;10.10;99.90;;;;;;5080143;28;20578;-88
2022/04/09 08:02:16;;;;;;;1.07;0.20;;;10.00;99.90;;;;;;5073712;28;20221;-89
2022/04/09 08:04:41;;;;;;;0.20;0.20;;;10.00;99.90;;;;;;5042301;28;20885;-88
2022/04/09 08:07:07;;;;;;;0.40;0.40;;;10.00;99.90;;;;;;5061339;28;20247;-90
2022/04/09 08:09:33;;;;;;;0.60;0.60;;;10.20;99.90;;;;;;5078809;28;20783;-89
2022/04/09 08:11:58;;;;;;;0.20;0.20;;;10.70;99.90;;;;;;5045166;28;20594;-89
2022/04/09 08:14:25;;;;;;;0.50;0.50;;;11.30;99.90;;;;;;5062218;28;20322;-87
2022/04/09 08:16:51;;;;;;;2.20;1.17;;;10.90;99.90;;;;;;5043548;28;20280;-87
2022/04/09 08:19:18;;;;;;;4.30;1.03;;;10.70;99.90;;;;;;5061661;28;21195;-89
2022/04/09 08:21:44;;;;;;;1.27;0.50;;;10.30;99.90;;;;;;5044873;28;20994;-89
2022/04/09 08:24:11;;;;;;;0.57;0.50;;;9.70;99.90;;;;;;5062446;28;20217;-88
2022/04/09 08:26:37;;;;;;;2.17;0.47;;;10.00;99.90;;;;;;5078320;28;20221;-88
2022/04/09 08:29:04;;;;;;;0.43;0.30;;;10.70;99.90;;;;;;5044024;28;20270;-84
2022/04/09 08:31:30;;;;;;;0.80;0.70;;;10.60;99.90;;;;;;5059789;28;20181;-86
2022/04/09 08:33:56;;;;;;;1.90;1.67;;;10.40;99.90;;;;;;5060321;28;20232;-84
2022/04/09 08:36:22;;;;;;;0.13;0.13;;;10.70;99.90;;;;;;5058757;28;20225;-84
2022/04/09 08:38:48;;;;;;;0.40;0.40;;;11.00;99.90;;;;;;5079012;28;20712;-83
2022/04/09 08:41:18;;;;;;;0.53;0.53;;;11.40;99.90;;;;;;5062197;28;20194;-85
2022/04/09 08:43:44;;;;;;;0.10;0.10;;;11.50;99.90;;;;;;5064833;28;20174;-84
2022/04/09 08:46:10;;;;;;;0.73;0.33;;;11.00;99.90;;;;;;5079731;28;20278;-84
2022/04/09 08:48:38;;;;;;;0.27;0.27;;;10.90;99.90;;;;;;5063879;28;20727;-86
2022/04/09 08:51:03;;;;;;;0.20;0.10;;;10.70;99.90;;;;;;5061791;28;20357;-86
2022/04/09 08:53:29;;;;;;;1.50;0.60;;;11.30;99.90;;;;;;5062831;28;20209;-86
2022/04/09 08:55:55;;;;;;;0.20;0.20;;;11.50;99.90;;;;;;5063334;28;20543;-86
2022/04/09 08:58:20;;;;;;;0.20;0.20;;;10.70;99.90;;;;;;5081073;28;20193;-88
2022/04/09 09:00:47;;;;;;;0.30;0.30;;;10.60;99.90;;;;;;5063367;28;20232;-85
2022/04/09 09:03:15;;;;;;;0.73;0.40;;;10.40;99.90;;;;;;5079142;28;20736;-85
2022/04/09 09:05:48;;;;;;;2.63;0.23;;;10.30;99.90;;;;;;5045940;28;20560;-86
2022/04/09 09:08:14;;;;;;;1.80;0.50;;;8.30;99.90;;;;;;5078488;28;20229;-85
2022/04/09 09:10:41;;;;;;;0.57;0.57;;;7.40;99.90;;;;;;5063935;28;20216;-85
2022/04/09 09:13:11;;;;;;;4.07;1.03;;;7.30;99.90;;;;;;5061351;28;20217;-86
2022/04/09 09:15:55;;;;;;;1.33;0.40;;;7.40;99.90;;;;;;5062754;28;20307;-86
2022/04/09 09:18:26;;;;;;;0.10;0.10;;;7.70;99.90;;;;;;5077718;28;20225;-86
2022/04/09 09:20:52;;;;;;;0.23;0.23;;;8.10;99.90;;;;;;5061372;28;20217;-84
2022/04/09 09:23:32;;;;;;;0.93;0.30;;;8.30;99.90;;;;;;5044790;28;20224;-83
2022/04/09 09:25:59;;;;;;;0.63;0.40;;;8.40;99.90;;;;;;5060971;28;20208;-85
2022/04/09 09:28:27;;;;;;;0.20;0.20;;;7.80;99.90;;;;;;5078637;28;20352;-85
2022/04/09 09:30:54;;;;;;;1.40;0.40;;;7.20;99.90;;;;;;5062005;28;20287;-84
2022/04/09 09:33:20;;;;;;;0.20;0.20;;;7.10;99.90;;;;;;5062191;28;20691;-84
2022/04/09 09:35:48;;;;;;;0.20;0.20;;;7.30;99.90;;;;;;5063030;28;20217;-83
2022/04/09 09:38:24;;;;;;;2.10;0.60;;;8.00;99.90;;;;;;5045525;28;20303;-86
2022/04/09 09:40:50;;;;;;;0.30;0.30;;;7.90;99.90;;;;;;5045820;28;20638;-89
2022/04/09 09:43:18;;;;;;;0.20;0.20;;;8.40;99.90;;;;;;5056567;28;20244;-88
2022/04/09 09:45:45;;;;;;;0.30;0.30;;;9.00;99.90;;;;;;5065439;28;20261;-90
2022/04/09 09:48:28;;;;;;;0.93;0.57;;;9.60;99.90;;;;;;5064898;28;20351;-90
2022/04/09 09:50:58;;;;;;;4.73;0.57;;;9.90;99.90;;;;;;5048181;28;21175;-89
2022/04/09 09:53:33;;;;;;;0.50;0.50;;;9.60;99.90;;;;;;5082009;28;21158;-89
2022/04/09 09:56:01;;;;;;;1.23;1.13;;;9.30;99.90;;;;;;5065972;28;20188;-87
2022/04/09 09:58:28;;;;;;;0.30;0.30;;;9.90;99.90;;;;;;5065037;28;20193;-85
2022/04/09 10:00:56;;;;;;;0.23;0.23;;;10.30;99.90;;;;;;5066552;28;20224;-86
2022/04/09 10:03:23;;;;;;;1.20;0.70;;;10.30;99.90;;;;;;5065975;28;20715;-85
2022/04/09 10:05:50;;;;;;;0.20;0.20;;;10.40;99.90;;;;;;5066299;28;20275;-86
2022/04/09 10:08:17;;;;;;;0.40;0.40;;;10.30;99.90;;;;;;5065376;28;20316;-86
2022/04/09 10:10:50;;;;;;;0.73;0.37;;;10.40;99.90;;;;;;5082529;28;20193;-85
2022/04/09 10:13:19;;;;;;;0.20;0.20;;;10.40;99.90;;;;;;5047289;28;20366;-86
2022/04/09 10:15:48;;;;;;;0.83;0.83;;;10.50;99.90;;;;;;5065027;28;20254;-88
2022/04/09 10:18:15;;;;;;;0.17;0.17;;;10.50;99.90;;;;;;5064416;28;20221;-88
2022/04/09 10:20:42;;;;;;;0.20;0.20;;;10.30;99.90;;;;;;5066246;28;20228;-86
2022/04/09 10:23:09;;;;;;;0.20;0.20;;;10.50;99.90;;;;;;5081262;28;20236;-86
2022/04/09 10:25:39;;;;;;;1.13;0.20;;;10.40;99.90;;;;;;5082429;28;20189;-85
2022/04/09 10:28:06;;;;;;;0.53;0.53;;;10.50;99.90;;;;;;5066150;28;20228;-86
2022/04/09 10:30:39;;;;;;;1.30;0.67;;;10.80;99.90;;;;;;5046725;28;20225;-87
2022/04/09 10:33:22;;;;;;;0.97;0.30;;;11.20;99.90;;;;;;5081852;28;20220;-88
2022/04/09 10:35:48;;;;;;;0.77;0.77;;;11.10;99.90;;;;;;5065983;28;20220;-87
2022/04/09 10:38:18;;;;;;;0.57;0.57;;;11.00;99.90;;;;;;5047446;28;20942;-86
2022/04/09 10:40:50;;;;;;;0.20;0.20;;;11.00;99.90;;;;;;5081981;28;20279;-85
2022/04/09 10:43:21;;;;;;;0.20;0.20;;;10.60;99.90;;;;;;5064787;28;20224;-86
2022/04/09 10:46:04;;;;;;;0.50;0.50;;;10.10;99.90;;;;;;5065546;28;20217;-85
2022/04/09 10:48:42;;;;;;;1.43;0.67;;;10.00;99.90;;;;;;5046383;28;20592;-86
2022/04/09 10:51:12;;;;;;;3.80;0.60;;;10.10;99.90;;;;;;5064147;28;20225;-89
2022/04/09 10:53:47;;;;;;;0.87;0.50;;;10.20;99.90;;;;;;5081417;28;20681;-91
2022/04/09 10:56:32;;;;;;;1.50;1.37;;;10.70;99.90;;;;;;5065004;28;20257;-92
2022/04/09 10:59:12;;;;;;;2.13;0.83;;;10.70;99.90;;;;;;5065024;28;20586;-89
2022/04/09 11:01:47;;;;;;;0.40;0.40;;;10.70;99.90;;;;;;5066377;28;20185;-92
2022/04/09 11:04:36;;;;;;;0.20;0.20;;;10.00;99.90;;;;;;5065120;28;20307;-87
2022/04/09 11:07:08;;;;;;;0.40;0.40;;;10.10;99.90;;;;;;5055657;28;20236;-90
2022/04/09 11:09:52;;;;;;;0.20;0.20;;;10.10;99.90;;;;;;5055853;28;20275;-90
2022/04/09 11:12:25;;;;;;;0.10;0.10;;;9.80;99.90;;;;;;5047457;28;20347;-89
2022/04/09 11:14:52;;;;;;;0.13;0.13;;;9.50;99.90;;;;;;5065464;28;20295;-87
2022/04/09 11:17:28;;;;;;;0.40;0.40;;;8.90;99.90;;;;;;5065177;28;20217;-90
2022/04/09 11:19:55;;;;;;;2.73;0.93;;;8.70;99.90;;;;;;5063464;28;20653;-88
2022/04/09 11:22:21;;;;;;;0.60;0.60;;;8.70;99.90;;;;;;5062648;28;20213;-87
2022/04/09 11:24:47;;;;;;;2.67;0.63;;;8.80;99.90;;;;;;5079937;28;20328;-92
2022/04/09 11:27:13;;;;;;;0.40;0.40;;;8.60;99.90;;;;;;5063577;28;20224;-89
2022/04/09 11:29:41;;;;;;;0.30;0.30;;;8.60;99.90;;;;;;5045635;28;20212;-87
2022/04/09 11:32:17;;;;;;;0.20;0.20;;;8.90;99.90;;;;;;5063412;28;20235;-88
2022/04/09 11:34:49;;;;;;;0.60;0.60;;;9.20;99.90;;;;;;5045377;28;20192;-89
2022/04/09 11:37:16;;;;;;;0.30;0.30;;;9.10;99.90;;;;;;5054010;28;20286;-89
2022/04/09 11:39:43;;;;;;;0.30;0.30;;;8.70;99.90;;;;;;5063150;28;20439;-90
2022/04/09 11:42:09;;;;;;;0.40;0.40;;;8.60;99.90;;;;;;5063030;28;20221;-88
2022/04/09 11:44:41;;;;;;;0.60;0.60;;;8.40;99.90;;;;;;5045718;28;20217;-91
2022/04/09 11:47:11;;;;;;;0.30;0.30;;;8.60;99.90;;;;;;5062852;28;20181;-87
2022/04/09 11:49:37;;;;;;;0.67;0.50;;;8.50;99.90;;;;;;5036040;28;20201;-87
2022/04/09 11:52:05;;;;;;;1.70;0.80;;;8.60;99.90;;;;;;5061096;28;20221;-85
2022/04/09 11:54:34;;;;;;;0.70;0.70;;;8.80;99.90;;;;;;5045511;28;20220;-86
2022/04/09 11:57:01;;;;;;;0.50;0.50;;;9.10;99.90;;;;;;5063314;28;21085;-87
2022/04/09 11:59:29;;;;;;;3.70;1.03;;;9.30;99.90;;;;;;5045216;28;20610;-84
2022/04/09 12:01:55;;;;;;;0.40;0.40;;;9.50;99.90;;;;;;5044982;28;20185;-84
2022/04/09 12:04:23;;;;;;;3.80;0.77;;;9.40;99.90;;;;;;5053591;28;20200;-86
2022/04/09 12:06:49;;;;;;;1.60;1.50;;;9.50;99.90;;;;;;5062169;28;21004;-88
2022/04/09 12:09:15;;;;;;;0.20;0.20;;;9.60;99.90;;;;;;5046929;28;20342;-89
2022/04/09 12:11:52;;;;;;;0.70;0.70;;;9.60;99.90;;;;;;5081664;28;20371;-89
2022/04/09 12:14:20;;;;;;;0.20;0.20;;;9.60;99.90;;;;;;5052827;28;20221;-88
2022/04/09 12:16:46;;;;;;;18.70;1.00;;;9.60;99.90;;;;;;5068227;28;20203;-89
2022/04/09 12:19:12;;;;;;;0.40;0.40;;;9.60;99.90;;;;;;5082386;28;21133;-90
2022/04/09 12:21:38;;;;;;;4.43;0.37;;;9.80;99.90;;;;;;5064922;28;20619;-88
2022/04/09 12:24:06;;;;;;;2.20;1.23;;;9.60;99.90;;;;;;5065917;28;20320;-88
2022/04/09 12:26:43;;;;;;;0.27;0.23;;;9.50;99.90;;;;;;5065217;28;20320;-90
2022/04/09 12:29:22;;;;;;;5.30;0.40;;;9.70;99.90;;;;;;5047725;28;20205;-90
2022/04/09 12:31:51;;;;;;;0.87;0.50;;;9.50;99.90;;;;;;5066399;28;20189;-89
2022/04/09 12:34:18;;;;;;;0.50;0.30;;;9.60;99.90;;;;;;5047582;28;20221;-91
2022/04/09 12:37:04;;;;;;;0.20;0.20;;;9.80;99.90;;;;;;5063811;28;20689;-89
2022/04/09 12:39:33;;;;;;;0.10;0.10;;;9.70;99.90;;;;;;5081354;28;20263;-89
2022/04/09 12:41:59;;;;;;;0.40;0.40;;;9.90;99.90;;;;;;5080518;28;20296;-88
2022/04/09 12:44:30;;;;;;;0.17;0.17;;;9.90;99.90;;;;;;5065137;28;20342;-92
2022/04/09 12:46:56;;;;;;;0.63;0.63;;;9.70;99.90;;;;;;5065215;28;20276;-87
2022/04/09 12:49:34;;;;;;;0.20;0.20;;;9.60;99.90;;;;;;5047980;28;20278;-87
2022/04/09 12:52:01;;;;;;;0.20;0.20;;;9.40;99.90;;;;;;5048249;28;20221;-89
2022/04/09 12:54:31;;;;;;;1.00;0.97;;;9.30;99.90;;;;;;5065352;28;20245;-86
2022/04/09 12:57:04;;;;;;;1.30;0.93;;;9.40;99.90;;;;;;5065831;28;20217;-90